sensor_id;sensor_type;location;lat;lon;timestamp;P1;durP1;ratioP1;P2;durP2;ratioP2
37288;SDS011;23174;49.462;11.000;2022-08-02T00:01:44;3.03;;;2.83;;
37288;SDS011;23174;49.462;11.000;2022-08-02T00:03:45;4.30;;;3.20;;
37288;SDS011;23174;49.462;11.000;2022-08-02T00:05:46;4.25;;;3.33;;
37288;SDS011;23174;49.462;11.000;2022-08-02T00:07:46;3.90;;;2.97;;
37288;SDS011;23174;49.462;11.000;2022-08-02T00:09:47;3.25;;;2.95;;
37288;SDS011;23174;49.462;11.000;2022-08-02T00:11:47;4.65;;;2.88;;
37288;SDS011;23174;49.462;11.000;2022-08-02T00:13:48;3.20;;;2.90;;
37288;SDS011;23174;49.462;11.000;2022-08-02T00:15:49;3.05;;;2.85;;
37288;SDS011;23174;49.462;11.000;2022-08-02T00:17:49;5.40;;;3.08;;
37288;SDS011;23174;49.462;11.000;2022-08-02T00:19:50;3.95;;;2.50;;
37288;SDS011;23174;49.462;11.000;2022-08-02T00:21:51;3.33;;;2.60;;
37288;SDS011;23174;49.462;11.000;2022-08-02T00:23:51;3.22;;;2.83;;
37288;SDS011;23174;49.462;11.000;2022-08-02T00:25:52;3.47;;;2.67;;
37288;SDS011;23174;49.462;11.000;2022-08-02T00:27:52;2.65;;;2.47;;
37288;SDS011;23174;49.462;11.000;2022-08-02T00:29:53;5.20;;;2.72;;
37288;SDS011;23174;49.462;11.000;2022-08-02T00:31:54;2.63;;;2.42;;
37288;SDS011;23174;49.462;11.000;2022-08-02T00:33:54;2.60;;;2.40;;
37288;SDS011;23174;49.462;11.000;2022-08-02T00:35:55;3.10;;;2.63;;
37288;SDS011;23174;49.462;11.000;2022-08-02T00:37:56;2.58;;;2.38;;
37288;SDS011;23174;49.462;11.000;2022-08-02T00:39:56;3.05;;;2.75;;
37288;SDS011;23174;49.462;11.000;2022-08-02T00:41:57;2.80;;;2.60;;
37288;SDS011;23174;49.462;11.000;2022-08-02T00:43:58;2.92;;;2.33;;
37288;SDS011;23174;49.462;11.000;2022-08-02T00:45:58;3.35;;;2.47;;
37288;SDS011;23174;49.462;11.000;2022-08-02T00:47:59;3.50;;;2.30;;
37288;SDS011;23174;49.462;11.000;2022-08-02T00:49:59;3.08;;;2.88;;
37288;SDS011;23174;49.462;11.000;2022-08-02T00:52:00;3.10;;;2.80;;
37288;SDS011;23174;49.462;11.000;2022-08-02T00:54:01;2.92;;;2.72;;
37288;SDS011;23174;49.462;11.000;2022-08-02T00:56:02;3.03;;;2.83;;
37288;SDS011;23174;49.462;11.000;2022-08-02T00:58:03;3.20;;;2.90;;
37288;SDS011;23174;49.462;11.000;2022-08-02T01:00:04;3.10;;;2.90;;
37288;SDS011;23174;49.462;11.000;2022-08-02T01:02:05;2.78;;;2.67;;
37288;SDS011;23174;49.462;11.000;2022-08-02T01:04:11;3.30;;;3.00;;
37288;SDS011;23174;49.462;11.000;2022-08-02T01:06:12;4.32;;;2.80;;
37288;SDS011;23174;49.462;11.000;2022-08-02T01:08:13;3.45;;;3.15;;
37288;SDS011;23174;49.462;11.000;2022-08-02T01:10:13;3.25;;;3.05;;
37288;SDS011;23174;49.462;11.000;2022-08-02T01:12:14;3.40;;;2.83;;
37288;SDS011;23174;49.462;11.000;2022-08-02T01:14:15;4.25;;;3.05;;
37288;SDS011;23174;49.462;11.000;2022-08-02T01:16:18;3.03;;;2.85;;
37288;SDS011;23174;49.462;11.000;2022-08-02T01:18:23;3.10;;;2.67;;
37288;SDS011;23174;49.462;11.000;2022-08-02T01:25:25;3.53;;;2.90;;
37288;SDS011;23174;49.462;11.000;2022-08-02T01:28:31;3.25;;;3.05;;
37288;SDS011;23174;49.462;11.000;2022-08-02T01:30:34;2.80;;;2.60;;
37288;SDS011;23174;49.462;11.000;2022-08-02T01:32:40;6.00;;;2.97;;
37288;SDS011;23174;49.462;11.000;2022-08-02T01:34:50;3.58;;;3.30;;
37288;SDS011;23174;49.462;11.000;2022-08-02T01:37:01;3.50;;;3.30;;
37288;SDS011;23174;49.462;11.000;2022-08-02T01:39:08;5.43;;;3.05;;
37288;SDS011;23174;49.462;11.000;2022-08-02T01:41:20;4.88;;;3.33;;
37288;SDS011;23174;49.462;11.000;2022-08-02T01:43:23;5.60;;;3.47;;
37288;SDS011;23174;49.462;11.000;2022-08-02T01:45:28;4.30;;;3.90;;
37288;SDS011;23174;49.462;11.000;2022-08-02T01:47:33;3.78;;;3.47;;
37288;SDS011;23174;49.462;11.000;2022-08-02T01:49:36;3.83;;;3.53;;
37288;SDS011;23174;49.462;11.000;2022-08-02T01:51:41;3.38;;;3.08;;
37288;SDS011;23174;49.462;11.000;2022-08-02T01:54:01;3.70;;;3.40;;
37288;SDS011;23174;49.462;11.000;2022-08-02T01:56:02;3.83;;;3.53;;
37288;SDS011;23174;49.462;11.000;2022-08-02T01:58:06;3.38;;;3.10;;
37288;SDS011;23174;49.462;11.000;2022-08-02T02:00:08;3.10;;;2.90;;
37288;SDS011;23174;49.462;11.000;2022-08-02T02:02:10;4.15;;;3.38;;
37288;SDS011;23174;49.462;11.000;2022-08-02T02:04:13;3.92;;;3.65;;
37288;SDS011;23174;49.462;11.000;2022-08-02T02:06:14;3.50;;;3.30;;
37288;SDS011;23174;49.462;11.000;2022-08-02T02:08:19;5.00;;;3.78;;
37288;SDS011;23174;49.462;11.000;2022-08-02T02:10:25;4.45;;;3.28;;
37288;SDS011;23174;49.462;11.000;2022-08-02T02:12:30;3.55;;;3.25;;
37288;SDS011;23174;49.462;11.000;2022-08-02T02:14:34;3.72;;;3.42;;
37288;SDS011;23174;49.462;11.000;2022-08-02T02:16:36;3.53;;;3.33;;
37288;SDS011;23174;49.462;11.000;2022-08-02T02:18:40;3.28;;;3.08;;
37288;SDS011;23174;49.462;11.000;2022-08-02T02:20:42;3.50;;;3.20;;
37288;SDS011;23174;49.462;11.000;2022-08-02T02:22:43;3.78;;;3.58;;
37288;SDS011;23174;49.462;11.000;2022-08-02T02:24:45;3.65;;;3.35;;
37288;SDS011;23174;49.462;11.000;2022-08-02T02:26:45;4.65;;;3.75;;
37288;SDS011;23174;49.462;11.000;2022-08-02T02:28:47;4.15;;;3.88;;
37288;SDS011;23174;49.462;11.000;2022-08-02T02:30:51;3.97;;;3.70;;
37288;SDS011;23174;49.462;11.000;2022-08-02T02:32:57;4.38;;;3.97;;
37288;SDS011;23174;49.462;11.000;2022-08-02T02:35:01;3.83;;;3.63;;
37288;SDS011;23174;49.462;11.000;2022-08-02T02:37:05;3.90;;;3.60;;
37288;SDS011;23174;49.462;11.000;2022-08-02T02:39:11;4.28;;;3.88;;
37288;SDS011;23174;49.462;11.000;2022-08-02T02:41:14;3.58;;;3.38;;
37288;SDS011;23174;49.462;11.000;2022-08-02T02:43:16;3.92;;;3.53;;
37288;SDS011;23174;49.462;11.000;2022-08-02T02:45:18;3.58;;;3.38;;
37288;SDS011;23174;49.462;11.000;2022-08-02T02:47:20;3.65;;;3.25;;
37288;SDS011;23174;49.462;11.000;2022-08-02T02:49:22;3.88;;;3.58;;
37288;SDS011;23174;49.462;11.000;2022-08-02T02:51:24;4.40;;;3.38;;
37288;SDS011;23174;49.462;11.000;2022-08-02T02:53:25;3.97;;;3.70;;
37288;SDS011;23174;49.462;11.000;2022-08-02T02:55:28;3.63;;;3.42;;
37288;SDS011;23174;49.462;11.000;2022-08-02T02:57:29;6.75;;;3.65;;
37288;SDS011;23174;49.462;11.000;2022-08-02T02:59:32;4.07;;;3.78;;
37288;SDS011;23174;49.462;11.000;2022-08-02T03:01:34;3.50;;;3.20;;
37288;SDS011;23174;49.462;11.000;2022-08-02T03:03:36;3.85;;;3.55;;
37288;SDS011;23174;49.462;11.000;2022-08-02T03:05:37;3.50;;;3.30;;
37288;SDS011;23174;49.462;11.000;2022-08-02T03:07:38;3.88;;;3.58;;
37288;SDS011;23174;49.462;11.000;2022-08-02T03:09:39;3.90;;;3.60;;
37288;SDS011;23174;49.462;11.000;2022-08-02T03:11:39;5.60;;;3.85;;
37288;SDS011;23174;49.462;11.000;2022-08-02T03:13:40;4.75;;;4.35;;
37288;SDS011;23174;49.462;11.000;2022-08-02T03:15:41;5.07;;;4.70;;
37288;SDS011;23174;49.462;11.000;2022-08-02T03:17:44;5.20;;;4.80;;
37288;SDS011;23174;49.462;11.000;2022-08-02T03:19:45;4.72;;;4.43;;
37288;SDS011;23174;49.462;11.000;2022-08-02T03:21:46;4.82;;;4.30;;
37288;SDS011;23174;49.462;11.000;2022-08-02T03:23:49;4.47;;;3.80;;
37288;SDS011;23174;49.462;11.000;2022-08-02T03:25:50;4.03;;;3.72;;
37288;SDS011;23174;49.462;11.000;2022-08-02T03:27:50;3.97;;;3.55;;
37288;SDS011;23174;49.462;11.000;2022-08-02T03:29:54;3.83;;;3.28;;
37288;SDS011;23174;49.462;11.000;2022-08-02T03:31:54;4.50;;;4.10;;
37288;SDS011;23174;49.462;11.000;2022-08-02T03:33:56;3.53;;;3.30;;
37288;SDS011;23174;49.462;11.000;2022-08-02T03:36:01;4.05;;;3.67;;
37288;SDS011;23174;49.462;11.000;2022-08-02T03:38:09;3.67;;;3.33;;
37288;SDS011;23174;49.462;11.000;2022-08-02T03:40:12;3.60;;;3.30;;
37288;SDS011;23174;49.462;11.000;2022-08-02T03:42:13;4.00;;;3.50;;
37288;SDS011;23174;49.462;11.000;2022-08-02T03:44:15;3.80;;;3.50;;
37288;SDS011;23174;49.462;11.000;2022-08-02T03:46:16;7.63;;;3.67;;
37288;SDS011;23174;49.462;11.000;2022-08-02T03:48:19;4.03;;;3.72;;
37288;SDS011;23174;49.462;11.000;2022-08-02T03:50:20;4.15;;;3.60;;
37288;SDS011;23174;49.462;11.000;2022-08-02T03:52:22;4.57;;;3.88;;
37288;SDS011;23174;49.462;11.000;2022-08-02T03:54:24;4.28;;;3.88;;
37288;SDS011;23174;49.462;11.000;2022-08-02T03:56:25;3.92;;;3.63;;
37288;SDS011;23174;49.462;11.000;2022-08-02T03:58:27;4.63;;;4.10;;
37288;SDS011;23174;49.462;11.000;2022-08-02T04:00:27;3.97;;;3.75;;
37288;SDS011;23174;49.462;11.000;2022-08-02T04:02:28;4.05;;;3.70;;
37288;SDS011;23174;49.462;11.000;2022-08-02T04:04:28;1.02;;;1.00;;
37288;SDS011;23174;49.462;11.000;2022-08-02T04:06:29;1.23;;;1.13;;
37288;SDS011;23174;49.462;11.000;2022-08-02T04:08:30;1.45;;;1.35;;
37288;SDS011;23174;49.462;11.000;2022-08-02T04:10:31;0.57;;;0.57;;
37288;SDS011;23174;49.462;11.000;2022-08-02T04:12:53;0.43;;;0.43;;
37288;SDS011;23174;49.462;11.000;2022-08-02T04:14:55;1.45;;;1.30;;
37288;SDS011;23174;49.462;11.000;2022-08-02T04:17:04;0.57;;;0.57;;
37288;SDS011;23174;49.462;11.000;2022-08-02T04:19:09;0.80;;;0.80;;
37288;SDS011;23174;49.462;11.000;2022-08-02T04:21:14;0.50;;;0.50;;
37288;SDS011;23174;49.462;11.000;2022-08-02T04:23:18;1.60;;;1.50;;
37288;SDS011;23174;49.462;11.000;2022-08-02T04:25:21;2.95;;;2.75;;
37288;SDS011;23174;49.462;11.000;2022-08-02T04:27:24;2.30;;;2.20;;
37288;SDS011;23174;49.462;11.000;2022-08-02T04:29:25;2.50;;;2.30;;
37288;SDS011;23174;49.462;11.000;2022-08-02T04:31:27;2.47;;;2.28;;
37288;SDS011;23174;49.462;11.000;2022-08-02T04:33:28;2.95;;;2.75;;
37288;SDS011;23174;49.462;11.000;2022-08-02T04:35:29;3.05;;;2.60;;
37288;SDS011;23174;49.462;11.000;2022-08-02T04:37:30;3.70;;;2.38;;
37288;SDS011;23174;49.462;11.000;2022-08-02T04:39:31;2.55;;;2.35;;
37288;SDS011;23174;49.462;11.000;2022-08-02T04:41:37;2.53;;;2.33;;
37288;SDS011;23174;49.462;11.000;2022-08-02T04:43:38;2.35;;;1.92;;
37288;SDS011;23174;49.462;11.000;2022-08-02T04:45:39;2.17;;;2.08;;
37288;SDS011;23174;49.462;11.000;2022-08-02T04:47:40;2.25;;;2.15;;
37288;SDS011;23174;49.462;11.000;2022-08-02T04:49:40;2.80;;;2.53;;
37288;SDS011;23174;49.462;11.000;2022-08-02T04:51:41;5.13;;;2.97;;
37288;SDS011;23174;49.462;11.000;2022-08-02T04:53:42;2.25;;;2.15;;
37288;SDS011;23174;49.462;11.000;2022-08-02T04:55:43;3.63;;;2.50;;
37288;SDS011;23174;49.462;11.000;2022-08-02T04:57:44;2.95;;;2.72;;
37288;SDS011;23174;49.462;11.000;2022-08-02T04:59:54;3.08;;;2.40;;
37288;SDS011;23174;49.462;11.000;2022-08-02T05:01:55;2.53;;;2.35;;
37288;SDS011;23174;49.462;11.000;2022-08-02T05:03:55;2.97;;;2.60;;
37288;SDS011;23174;49.462;11.000;2022-08-02T05:05:56;4.90;;;2.20;;
37288;SDS011;23174;49.462;11.000;2022-08-02T05:07:57;2.95;;;2.75;;
37288;SDS011;23174;49.462;11.000;2022-08-02T05:09:58;9.50;;;2.80;;
37288;SDS011;23174;49.462;11.000;2022-08-02T05:11:58;4.13;;;2.33;;
37288;SDS011;23174;49.462;11.000;2022-08-02T05:13:59;3.13;;;2.72;;
37288;SDS011;23174;49.462;11.000;2022-08-02T05:16:00;2.83;;;2.47;;
37288;SDS011;23174;49.462;11.000;2022-08-02T05:18:02;3.58;;;2.72;;
37288;SDS011;23174;49.462;11.000;2022-08-02T05:20:03;3.08;;;2.80;;
37288;SDS011;23174;49.462;11.000;2022-08-02T05:22:05;4.88;;;2.78;;
37288;SDS011;23174;49.462;11.000;2022-08-02T05:24:05;8.27;;;2.45;;
37288;SDS011;23174;49.462;11.000;2022-08-02T05:26:06;2.83;;;2.33;;
37288;SDS011;23174;49.462;11.000;2022-08-02T05:28:07;2.88;;;2.45;;
37288;SDS011;23174;49.462;11.000;2022-08-02T05:30:08;2.67;;;2.25;;
37288;SDS011;23174;49.462;11.000;2022-08-02T05:32:09;3.13;;;2.55;;
37288;SDS011;23174;49.462;11.000;2022-08-02T05:34:10;3.03;;;2.83;;
37288;SDS011;23174;49.462;11.000;2022-08-02T05:36:10;3.13;;;2.85;;
37288;SDS011;23174;49.462;11.000;2022-08-02T05:38:11;3.67;;;2.97;;
37288;SDS011;23174;49.462;11.000;2022-08-02T05:40:11;3.88;;;2.60;;
37288;SDS011;23174;49.462;11.000;2022-08-02T05:42:12;5.28;;;2.65;;
37288;SDS011;23174;49.462;11.000;2022-08-02T05:44:13;3.42;;;2.33;;
37288;SDS011;23174;49.462;11.000;2022-08-02T05:46:13;2.53;;;2.20;;
37288;SDS011;23174;49.462;11.000;2022-08-02T05:48:14;5.35;;;2.72;;
37288;SDS011;23174;49.462;11.000;2022-08-02T05:50:14;2.65;;;2.45;;
37288;SDS011;23174;49.462;11.000;2022-08-02T05:52:16;5.25;;;2.58;;
37288;SDS011;23174;49.462;11.000;2022-08-02T05:54:19;2.50;;;2.40;;
37288;SDS011;23174;49.462;11.000;2022-08-02T05:58:35;2.85;;;2.65;;
37288;SDS011;23174;49.462;11.000;2022-08-02T06:00:44;2.60;;;2.38;;
37288;SDS011;23174;49.462;11.000;2022-08-02T06:05:03;3.00;;;2.78;;
37288;SDS011;23174;49.462;11.000;2022-08-02T06:07:10;3.10;;;2.90;;
37288;SDS011;23174;49.462;11.000;2022-08-02T06:09:15;2.28;;;2.08;;
37288;SDS011;23174;49.462;11.000;2022-08-02T06:11:19;2.08;;;1.98;;
37288;SDS011;23174;49.462;11.000;2022-08-02T06:13:22;2.88;;;2.28;;
37288;SDS011;23174;49.462;11.000;2022-08-02T06:15:24;2.42;;;2.25;;
37288;SDS011;23174;49.462;11.000;2022-08-02T06:17:24;3.47;;;2.33;;
37288;SDS011;23174;49.462;11.000;2022-08-02T06:19:25;2.35;;;2.15;;
37288;SDS011;23174;49.462;11.000;2022-08-02T06:21:26;2.78;;;1.55;;
37288;SDS011;23174;49.462;11.000;2022-08-02T06:23:27;1.98;;;1.83;;
37288;SDS011;23174;49.462;11.000;2022-08-02T06:25:30;1.90;;;1.80;;
37288;SDS011;23174;49.462;11.000;2022-08-02T06:27:32;2.03;;;1.92;;
37288;SDS011;23174;49.462;11.000;2022-08-02T06:29:33;3.55;;;1.90;;
37288;SDS011;23174;49.462;11.000;2022-08-02T06:31:35;2.03;;;1.92;;
37288;SDS011;23174;49.462;11.000;2022-08-02T06:33:37;1.83;;;1.65;;
37288;SDS011;23174;49.462;11.000;2022-08-02T06:36:24;1.77;;;1.67;;
37288;SDS011;23174;49.462;11.000;2022-08-02T06:38:17;2.08;;;1.98;;
37288;SDS011;23174;49.462;11.000;2022-08-02T06:42:32;1.88;;;1.75;;
37288;SDS011;23174;49.462;11.000;2022-08-02T06:44:43;2.00;;;1.90;;
37288;SDS011;23174;49.462;11.000;2022-08-02T06:46:43;2.25;;;1.60;;
37288;SDS011;23174;49.462;11.000;2022-08-02T06:48:44;2.03;;;1.92;;
37288;SDS011;23174;49.462;11.000;2022-08-02T06:50:45;1.88;;;1.77;;
37288;SDS011;23174;49.462;11.000;2022-08-02T06:52:45;2.05;;;1.80;;
37288;SDS011;23174;49.462;11.000;2022-08-02T06:54:46;1.73;;;1.63;;
37288;SDS011;23174;49.462;11.000;2022-08-02T06:56:47;2.20;;;1.92;;
37288;SDS011;23174;49.462;11.000;2022-08-02T06:58:47;2.13;;;2.03;;
37288;SDS011;23174;49.462;11.000;2022-08-02T07:00:48;2.28;;;2.08;;
37288;SDS011;23174;49.462;11.000;2022-08-02T07:02:49;1.63;;;1.52;;
37288;SDS011;23174;49.462;11.000;2022-08-02T07:04:50;3.53;;;1.80;;
37288;SDS011;23174;49.462;11.000;2022-08-02T07:06:51;1.75;;;1.65;;
37288;SDS011;23174;49.462;11.000;2022-08-02T07:08:51;5.05;;;4.65;;
37288;SDS011;23174;49.462;11.000;2022-08-02T07:10:52;5.20;;;4.70;;
37288;SDS011;23174;49.462;11.000;2022-08-02T07:12:54;6.60;;;4.30;;
37288;SDS011;23174;49.462;11.000;2022-08-02T07:14:55;7.75;;;4.78;;
37288;SDS011;23174;49.462;11.000;2022-08-02T07:16:57;6.03;;;4.47;;
37288;SDS011;23174;49.462;11.000;2022-08-02T07:18:58;4.22;;;3.90;;
37288;SDS011;23174;49.462;11.000;2022-08-02T07:20:58;3.90;;;3.60;;
37288;SDS011;23174;49.462;11.000;2022-08-02T07:22:59;4.10;;;3.80;;
37288;SDS011;23174;49.462;11.000;2022-08-02T07:24:59;3.80;;;3.50;;
37288;SDS011;23174;49.462;11.000;2022-08-02T07:27:01;4.20;;;3.90;;
37288;SDS011;23174;49.462;11.000;2022-08-02T07:29:01;4.32;;;3.47;;
37288;SDS011;23174;49.462;11.000;2022-08-02T07:31:02;3.60;;;3.33;;
37288;SDS011;23174;49.462;11.000;2022-08-02T07:33:03;5.07;;;3.75;;
37288;SDS011;23174;49.462;11.000;2022-08-02T07:35:04;4.50;;;4.18;;
37288;SDS011;23174;49.462;11.000;2022-08-02T07:37:06;4.85;;;3.97;;
37288;SDS011;23174;49.462;11.000;2022-08-02T07:39:10;3.65;;;3.40;;
37288;SDS011;23174;49.462;11.000;2022-08-02T07:41:10;3.20;;;2.88;;
37288;SDS011;23174;49.462;11.000;2022-08-02T07:43:11;3.92;;;3.63;;
37288;SDS011;23174;49.462;11.000;2022-08-02T07:45:12;4.28;;;3.97;;
37288;SDS011;23174;49.462;11.000;2022-08-02T07:47:13;3.90;;;3.60;;
37288;SDS011;23174;49.462;11.000;2022-08-02T07:49:14;3.90;;;3.47;;
37288;SDS011;23174;49.462;11.000;2022-08-02T07:51:17;4.55;;;3.50;;
37288;SDS011;23174;49.462;11.000;2022-08-02T07:53:18;3.85;;;3.55;;
37288;SDS011;23174;49.462;11.000;2022-08-02T07:55:18;3.90;;;3.50;;
37288;SDS011;23174;49.462;11.000;2022-08-02T07:57:19;4.90;;;3.05;;
37288;SDS011;23174;49.462;11.000;2022-08-02T07:59:20;2.80;;;2.50;;
37288;SDS011;23174;49.462;11.000;2022-08-02T08:01:21;4.60;;;2.97;;
37288;SDS011;23174;49.462;11.000;2022-08-02T08:03:22;6.25;;;3.20;;
37288;SDS011;23174;49.462;11.000;2022-08-02T08:05:22;3.80;;;3.50;;
37288;SDS011;23174;49.462;11.000;2022-08-02T08:07:23;3.85;;;3.42;;
37288;SDS011;23174;49.462;11.000;2022-08-02T08:09:24;3.42;;;3.13;;
37288;SDS011;23174;49.462;11.000;2022-08-02T08:11:25;3.35;;;3.15;;
37288;SDS011;23174;49.462;11.000;2022-08-02T08:13:25;3.53;;;3.22;;
37288;SDS011;23174;49.462;11.000;2022-08-02T08:15:26;3.20;;;3.00;;
37288;SDS011;23174;49.462;11.000;2022-08-02T08:17:26;3.72;;;3.42;;
37288;SDS011;23174;49.462;11.000;2022-08-02T08:19:27;3.72;;;3.53;;
37288;SDS011;23174;49.462;11.000;2022-08-02T08:21:28;4.40;;;2.97;;
37288;SDS011;23174;49.462;11.000;2022-08-02T08:23:29;5.45;;;3.63;;
37288;SDS011;23174;49.462;11.000;2022-08-02T08:25:29;3.20;;;3.00;;
37288;SDS011;23174;49.462;11.000;2022-08-02T08:27:30;3.72;;;3.42;;
37288;SDS011;23174;49.462;11.000;2022-08-02T08:29:30;4.00;;;3.70;;
37288;SDS011;23174;49.462;11.000;2022-08-02T08:31:32;4.10;;;3.55;;
37288;SDS011;23174;49.462;11.000;2022-08-02T08:33:33;3.97;;;3.47;;
37288;SDS011;23174;49.462;11.000;2022-08-02T08:35:33;3.53;;;3.22;;
37288;SDS011;23174;49.462;11.000;2022-08-02T08:37:34;3.28;;;2.80;;
37288;SDS011;23174;49.462;11.000;2022-08-02T08:39:36;3.22;;;3.00;;
37288;SDS011;23174;49.462;11.000;2022-08-02T08:41:36;3.47;;;3.28;;
37288;SDS011;23174;49.462;11.000;2022-08-02T08:43:37;3.55;;;3.33;;
37288;SDS011;23174;49.462;11.000;2022-08-02T08:45:38;4.15;;;3.38;;
37288;SDS011;23174;49.462;11.000;2022-08-02T08:47:43;3.70;;;3.13;;
37288;SDS011;23174;49.462;11.000;2022-08-02T08:49:52;3.83;;;3.45;;
37288;SDS011;23174;49.462;11.000;2022-08-02T08:51:58;3.28;;;3.08;;
37288;SDS011;23174;49.462;11.000;2022-08-02T08:54:03;4.65;;;3.47;;
37288;SDS011;23174;49.462;11.000;2022-08-02T08:56:10;4.22;;;3.83;;
37288;SDS011;23174;49.462;11.000;2022-08-02T08:58:11;4.00;;;3.67;;
37288;SDS011;23174;49.462;11.000;2022-08-02T09:00:13;3.60;;;3.30;;
37288;SDS011;23174;49.462;11.000;2022-08-02T09:02:15;3.50;;;3.30;;
37288;SDS011;23174;49.462;11.000;2022-08-02T09:04:17;6.82;;;3.70;;
37288;SDS011;23174;49.462;11.000;2022-08-02T09:06:18;3.35;;;3.03;;
37288;SDS011;23174;49.462;11.000;2022-08-02T09:08:19;3.35;;;3.03;;
37288;SDS011;23174;49.462;11.000;2022-08-02T09:10:30;3.25;;;3.05;;
37288;SDS011;23174;49.462;11.000;2022-08-02T09:12:40;3.58;;;3.20;;
37288;SDS011;23174;49.462;11.000;2022-08-02T09:14:41;3.90;;;3.10;;
37288;SDS011;23174;49.462;11.000;2022-08-02T09:16:42;3.55;;;2.92;;
37288;SDS011;23174;49.462;11.000;2022-08-02T09:18:44;3.78;;;3.47;;
37288;SDS011;23174;49.462;11.000;2022-08-02T09:20:52;3.70;;;3.42;;
37288;SDS011;23174;49.462;11.000;2022-08-02T09:23:09;4.20;;;3.33;;
37288;SDS011;23174;49.462;11.000;2022-08-02T09:25:14;4.57;;;3.10;;
37288;SDS011;23174;49.462;11.000;2022-08-02T09:27:15;3.45;;;3.25;;
37288;SDS011;23174;49.462;11.000;2022-08-02T09:29:18;3.22;;;2.95;;
37288;SDS011;23174;49.462;11.000;2022-08-02T09:31:22;3.10;;;2.90;;
37288;SDS011;23174;49.462;11.000;2022-08-02T09:33:24;4.22;;;3.80;;
37288;SDS011;23174;49.462;11.000;2022-08-02T09:35:32;3.15;;;2.92;;
37288;SDS011;23174;49.462;11.000;2022-08-02T09:37:38;2.63;;;2.47;;
37288;SDS011;23174;49.462;11.000;2022-08-02T09:39:42;5.65;;;3.08;;
37288;SDS011;23174;49.462;11.000;2022-08-02T09:41:44;3.67;;;3.33;;
37288;SDS011;23174;49.462;11.000;2022-08-02T09:43:45;3.13;;;2.80;;
37288;SDS011;23174;49.462;11.000;2022-08-02T09:45:45;2.47;;;2.28;;
37288;SDS011;23174;49.462;11.000;2022-08-02T09:47:47;2.60;;;2.40;;
37288;SDS011;23174;49.462;11.000;2022-08-02T09:49:48;2.58;;;2.38;;
37288;SDS011;23174;49.462;11.000;2022-08-02T09:51:49;2.45;;;1.90;;
37288;SDS011;23174;49.462;11.000;2022-08-02T09:53:52;2.08;;;1.98;;
37288;SDS011;23174;49.462;11.000;2022-08-02T09:56:00;2.40;;;2.20;;
37288;SDS011;23174;49.462;11.000;2022-08-02T09:58:16;2.78;;;2.60;;
37288;SDS011;23174;49.462;11.000;2022-08-02T10:00:18;3.20;;;2.90;;
37288;SDS011;23174;49.462;11.000;2022-08-02T10:02:19;2.65;;;2.35;;
37288;SDS011;23174;49.462;11.000;2022-08-02T10:04:21;2.88;;;2.60;;
37288;SDS011;23174;49.462;11.000;2022-08-02T10:06:23;2.92;;;2.70;;
37288;SDS011;23174;49.462;11.000;2022-08-02T10:08:24;3.65;;;2.50;;
37288;SDS011;23174;49.462;11.000;2022-08-02T10:10:25;2.97;;;2.75;;
37288;SDS011;23174;49.462;11.000;2022-08-02T10:12:26;3.17;;;2.45;;
37288;SDS011;23174;49.462;11.000;2022-08-02T10:14:27;2.30;;;2.08;;
37288;SDS011;23174;49.462;11.000;2022-08-02T10:16:28;2.20;;;1.92;;
37288;SDS011;23174;49.462;11.000;2022-08-02T10:18:28;2.03;;;1.92;;
37288;SDS011;23174;49.462;11.000;2022-08-02T10:20:29;1.67;;;1.50;;
37288;SDS011;23174;49.462;11.000;2022-08-02T10:22:35;2.95;;;2.75;;
37288;SDS011;23174;49.462;11.000;2022-08-02T10:24:38;2.72;;;1.98;;
37288;SDS011;23174;49.462;11.000;2022-08-02T10:26:40;2.80;;;2.60;;
37288;SDS011;23174;49.462;11.000;2022-08-02T10:28:43;3.08;;;2.78;;
37288;SDS011;23174;49.462;11.000;2022-08-02T10:30:46;3.08;;;2.80;;
37288;SDS011;23174;49.462;11.000;2022-08-02T10:32:48;3.28;;;3.08;;
37288;SDS011;23174;49.462;11.000;2022-08-02T10:34:52;3.10;;;2.90;;
37288;SDS011;23174;49.462;11.000;2022-08-02T10:37:04;5.15;;;2.72;;
37288;SDS011;23174;49.462;11.000;2022-08-02T10:39:07;2.10;;;2.00;;
37288;SDS011;23174;49.462;11.000;2022-08-02T10:41:08;2.50;;;2.30;;
37288;SDS011;23174;49.462;11.000;2022-08-02T10:43:10;2.53;;;2.40;;
37288;SDS011;23174;49.462;11.000;2022-08-02T10:45:12;2.10;;;2.00;;
37288;SDS011;23174;49.462;11.000;2022-08-02T10:49:23;0.20;;;0.20;;
37288;SDS011;23174;49.462;11.000;2022-08-02T10:51:23;2.75;;;2.30;;
37288;SDS011;23174;49.462;11.000;2022-08-02T10:55:28;2.40;;;2.30;;
37288;SDS011;23174;49.462;11.000;2022-08-02T10:57:43;3.20;;;2.35;;
37288;SDS011;23174;49.462;11.000;2022-08-02T10:59:44;2.22;;;2.13;;
37288;SDS011;23174;49.462;11.000;2022-08-02T11:01:45;2.25;;;2.10;;
37288;SDS011;23174;49.462;11.000;2022-08-02T11:03:46;2.28;;;2.17;;
37288;SDS011;23174;49.462;11.000;2022-08-02T11:05:59;2.47;;;2.28;;
37288;SDS011;23174;49.462;11.000;2022-08-02T11:08:17;3.38;;;2.30;;
37288;SDS011;23174;49.462;11.000;2022-08-02T11:10:27;3.08;;;2.03;;
37288;SDS011;23174;49.462;11.000;2022-08-02T11:12:32;2.50;;;2.30;;
37288;SDS011;23174;49.462;11.000;2022-08-02T11:15:06;5.07;;;2.55;;
37288;SDS011;23174;49.462;11.000;2022-08-02T11:17:14;2.63;;;2.42;;
37288;SDS011;23174;49.462;11.000;2022-08-02T11:19:15;1.67;;;1.58;;
37288;SDS011;23174;49.462;11.000;2022-08-02T11:21:19;3.75;;;2.28;;
37288;SDS011;23174;49.462;11.000;2022-08-02T11:23:46;0.40;;;0.40;;
37288;SDS011;23174;49.462;11.000;2022-08-02T11:25:47;1.75;;;1.65;;
37288;SDS011;23174;49.462;11.000;2022-08-02T11:27:50;2.30;;;2.10;;
37288;SDS011;23174;49.462;11.000;2022-08-02T11:29:51;2.35;;;1.90;;
37288;SDS011;23174;49.462;11.000;2022-08-02T11:31:51;2.45;;;2.25;;
37288;SDS011;23174;49.462;11.000;2022-08-02T11:33:52;3.15;;;2.50;;
37288;SDS011;23174;49.462;11.000;2022-08-02T11:35:53;2.63;;;2.30;;
37288;SDS011;23174;49.462;11.000;2022-08-02T11:38:14;4.18;;;1.80;;
37288;SDS011;23174;49.462;11.000;2022-08-02T11:40:17;1.80;;;1.70;;
37288;SDS011;23174;49.462;11.000;2022-08-02T11:42:18;1.70;;;1.60;;
37288;SDS011;23174;49.462;11.000;2022-08-02T11:44:19;2.47;;;1.75;;
37288;SDS011;23174;49.462;11.000;2022-08-02T11:46:20;1.60;;;1.50;;
37288;SDS011;23174;49.462;11.000;2022-08-02T11:50:34;2.33;;;2.00;;
37288;SDS011;23174;49.462;11.000;2022-08-02T11:52:35;2.55;;;2.30;;
37288;SDS011;23174;49.462;11.000;2022-08-02T11:54:37;4.55;;;2.03;;
37288;SDS011;23174;49.462;11.000;2022-08-02T11:56:39;2.45;;;2.25;;
37288;SDS011;23174;49.462;11.000;2022-08-02T11:58:40;2.15;;;1.83;;
37288;SDS011;23174;49.462;11.000;2022-08-02T12:00:41;5.35;;;2.50;;
37288;SDS011;23174;49.462;11.000;2022-08-02T12:02:46;2.70;;;2.50;;
37288;SDS011;23174;49.462;11.000;2022-08-02T12:06:56;2.92;;;2.72;;
37288;SDS011;23174;49.462;11.000;2022-08-02T12:09:06;2.63;;;2.42;;
37288;SDS011;23174;49.462;11.000;2022-08-02T12:11:08;2.30;;;2.20;;
37288;SDS011;23174;49.462;11.000;2022-08-02T12:13:09;2.53;;;2.33;;
37288;SDS011;23174;49.462;11.000;2022-08-02T12:15:09;2.63;;;2.45;;
37288;SDS011;23174;49.462;11.000;2022-08-02T12:17:10;3.22;;;2.40;;
37288;SDS011;23174;49.462;11.000;2022-08-02T12:19:29;2.78;;;2.58;;
37288;SDS011;23174;49.462;11.000;2022-08-02T12:21:29;4.45;;;2.28;;
37288;SDS011;23174;49.462;11.000;2022-08-02T12:23:31;2.78;;;2.45;;
37288;SDS011;23174;49.462;11.000;2022-08-02T12:25:31;6.15;;;2.38;;
37288;SDS011;23174;49.462;11.000;2022-08-02T12:27:37;2.30;;;2.20;;
37288;SDS011;23174;49.462;11.000;2022-08-02T12:29:40;6.45;;;2.63;;